createdAt,value
2022-09-04T00:05:03.421Z,15.87
2022-09-04T00:10:20.879Z,15.87
2022-09-04T00:15:31.053Z,15.80
2022-09-04T00:20:48.483Z,15.84
2022-09-04T00:26:02.992Z,15.85
2022-09-04T00:31:31.444Z,15.78
2022-09-04T00:36:39.996Z,15.79
2022-09-04T00:42:16.066Z,15.78
2022-09-04T00:47:42.544Z,15.69
2022-09-04T00:53:09.828Z,15.66
2022-09-04T00:58:30.727Z,15.47
2022-09-04T01:03:55.968Z,15.38
2022-09-04T01:09:25.089Z,15.33
2022-09-04T01:14:48.629Z,15.24
2022-09-04T01:19:56.686Z,15.05
2022-09-04T01:25:11.371Z,15.00
2022-09-04T01:30:19.787Z,14.96
2022-09-04T01:35:36.589Z,14.90
2022-09-04T01:40:56.753Z,14.81
2022-09-04T01:46:16.829Z,14.73
2022-09-04T01:51:28.223Z,14.69
2022-09-04T01:56:45.927Z,14.72
2022-09-04T02:02:00.447Z,14.67
2022-09-04T02:07:14.617Z,14.68
2022-09-04T02:12:42.821Z,14.61
2022-09-04T02:18:11.110Z,14.61
2022-09-04T02:23:39.608Z,14.58
2022-09-04T02:29:06.382Z,14.53
2022-09-04T02:34:40.437Z,14.53
2022-09-04T02:40:24.267Z,14.43
2022-09-04T02:46:06.599Z,14.38
2022-09-04T02:51:41.038Z,14.34
2022-09-04T02:56:49.642Z,14.28
2022-09-04T03:02:01.333Z,14.23
2022-09-04T03:07:31.727Z,14.24
2022-09-04T03:12:49.595Z,14.24
2022-09-04T03:18:22.118Z,14.21
2022-09-04T03:23:39.433Z,14.21
2022-09-04T03:29:04.544Z,14.31
2022-09-04T03:34:24.471Z,14.31
2022-09-04T03:40:06.671Z,14.28
2022-09-04T03:45:45.254Z,14.32
2022-09-04T03:50:53.876Z,14.25
2022-09-04T03:56:23.262Z,14.23
2022-09-04T04:01:37.764Z,14.23
2022-09-04T04:06:55.593Z,14.18
2022-09-04T04:12:19.490Z,14.14
2022-09-04T04:17:49.017Z,14.08
2022-09-04T04:23:10.250Z,14.03
2022-09-04T04:28:24.692Z,13.97
2022-09-04T04:33:42.780Z,13.97
2022-09-04T04:38:57.496Z,13.95
2022-09-04T04:44:18.170Z,13.93
2022-09-04T04:49:36.302Z,13.93
2022-09-04T04:55:06.521Z,13.88
2022-09-04T05:00:34.877Z,13.82
2022-09-04T05:05:56.148Z,13.90
2022-09-04T05:11:10.779Z,13.88
2022-09-04T05:16:35.678Z,14.02
2022-09-04T05:21:50.177Z,14.08
2022-09-04T05:26:59.132Z,14.10
2022-09-04T05:32:19.436Z,14.17
2022-09-04T05:37:47.726Z,14.25
2022-09-04T05:43:00.339Z,14.37
2022-09-04T05:48:15.034Z,14.35
2022-09-04T05:53:26.053Z,14.41
2022-09-04T05:58:43.367Z,14.55
2022-09-04T06:03:57.848Z,14.65
2022-09-04T06:09:18.388Z,14.68
2022-09-04T06:14:42.041Z,14.84
2022-09-04T06:20:02.763Z,14.93
2022-09-04T06:25:39.776Z,14.90
2022-09-04T06:31:11.424Z,15.08
2022-09-04T06:36:23.359Z,15.27
2022-09-04T06:41:48.895Z,15.53
2022-09-04T06:47:12.588Z,15.84
2022-09-04T06:52:31.043Z,16.11
2022-09-04T06:57:54.533Z,16.56
2022-09-04T07:03:15.044Z,16.90
2022-09-04T07:08:43.446Z,16.85
2022-09-04T07:14:10.224Z,17.00
2022-09-04T07:19:35.133Z,17.09
2022-09-04T07:24:52.796Z,17.25
2022-09-04T07:30:06.839Z,17.39
2022-09-04T07:35:18.251Z,17.40
2022-09-04T07:40:30.777Z,17.47
2022-09-04T07:45:46.748Z,17.56
2022-09-04T07:51:02.989Z,17.66
2022-09-04T07:56:14.225Z,17.83
2022-09-04T08:01:45.283Z,17.95
2022-09-04T08:06:54.124Z,18.13
2022-09-04T08:12:14.434Z,18.37
2022-09-04T08:17:45.879Z,18.43
2022-09-04T08:23:06.215Z,18.59
2022-09-04T08:28:31.547Z,18.80
2022-09-04T08:33:40.258Z,19.03
2022-09-04T08:39:09.571Z,19.23
2022-09-04T08:44:21.021Z,19.27
2022-09-04T08:49:58.303Z,19.38
2022-09-04T08:55:21.769Z,19.57
2022-09-04T09:00:47.208Z,19.67
2022-09-04T09:06:02.292Z,19.94
2022-09-04T09:11:39.812Z,20.17
2022-09-04T09:16:48.311Z,20.30
2022-09-04T09:22:16.739Z,20.45
2022-09-04T09:27:58.975Z,20.58
2022-09-04T09:33:10.579Z,20.67
2022-09-04T09:38:35.909Z,20.79
2022-09-04T09:43:51.267Z,21.04
2022-09-04T09:49:19.197Z,21.08
2022-09-04T09:54:51.998Z,21.21
2022-09-04T10:00:18.445Z,21.35
2022-09-04T10:05:49.832Z,21.49
2022-09-04T10:11:04.790Z,21.61
2022-09-04T10:16:29.730Z,21.81
2022-09-04T10:22:13.573Z,21.92
2022-09-04T10:27:28.154Z,21.89
2022-09-04T10:32:51.942Z,21.96
2022-09-04T10:38:20.144Z,22.03
2022-09-04T10:43:51.405Z,22.29
2022-09-04T10:49:13.056Z,22.35
2022-09-04T10:54:21.629Z,22.52
2022-09-04T10:59:58.858Z,22.74
2022-09-04T11:05:17.667Z,22.82
2022-09-04T11:10:45.895Z,22.89
2022-09-04T11:16:10.249Z,23.16
2022-09-04T11:21:35.704Z,23.53
2022-09-04T11:27:07.921Z,23.34
2022-09-04T11:32:22.503Z,23.24
2022-09-04T11:37:31.420Z,23.44
2022-09-04T11:43:01.137Z,23.60
2022-09-04T11:48:21.678Z,23.70
2022-09-04T11:53:36.223Z,23.79
2022-09-04T11:58:44.929Z,23.71
2022-09-04T12:04:22.581Z,24.03
2022-09-04T12:09:37.075Z,24.17
2022-09-04T12:15:07.654Z,24.09
2022-09-04T12:20:17.169Z,24.33
2022-09-04T12:25:37.268Z,24.51
2022-09-04T12:30:52.088Z,24.62
2022-09-04T12:36:31.009Z,24.69
2022-09-04T12:42:05.744Z,25.00
2022-09-04T12:47:33.942Z,24.95
2022-09-04T12:52:45.034Z,25.20
2022-09-04T12:58:00.989Z,25.02
2022-09-04T13:03:43.273Z,24.99
2022-09-04T13:08:52.930Z,24.80
2022-09-04T13:14:05.621Z,24.86
2022-09-04T13:19:30.504Z,25.18
2022-09-04T13:24:45.169Z,25.18
2022-09-04T13:30:11.927Z,25.04
2022-09-04T13:35:58.744Z,25.15
2022-09-04T13:41:16.154Z,25.16
2022-09-04T13:46:32.076Z,25.48
2022-09-04T13:51:53.240Z,25.43
2022-09-04T13:57:07.453Z,25.40
2022-09-04T14:02:15.829Z,25.36
2022-09-04T14:07:30.017Z,25.54
2022-09-04T14:12:38.555Z,25.60
2022-09-04T14:17:58.868Z,25.63
2022-09-04T14:23:27.070Z,25.93
2022-09-04T14:28:38.374Z,26.08
2022-09-04T14:33:53.742Z,26.02
2022-09-04T14:39:21.424Z,26.08
2022-09-04T14:44:39.372Z,25.98
2022-09-04T14:49:48.007Z,26.16
2022-09-04T14:54:57.905Z,26.19
2022-09-04T15:00:21.174Z,26.23
2022-09-04T15:05:40.036Z,26.49
2022-09-04T15:10:50.128Z,26.44
2022-09-04T15:16:10.694Z,26.19
2022-09-04T15:21:22.544Z,26.14
2022-09-04T15:26:42.420Z,26.25
2022-09-04T15:31:47.836Z,26.27
2022-09-04T15:36:54.532Z,26.31
2022-09-04T15:42:01.380Z,26.33
2022-09-04T15:47:24.560Z,26.25
2022-09-04T15:52:42.482Z,26.35
2022-09-04T15:58:04.466Z,26.31
2022-09-04T16:03:15.865Z,26.18
2022-09-04T16:08:45.431Z,26.16
2022-09-04T16:14:17.347Z,26.20
2022-09-04T16:19:46.397Z,26.20
2022-09-04T16:24:59.114Z,26.22
2022-09-04T16:30:06.472Z,26.18
2022-09-04T16:35:21.719Z,25.92
2022-09-04T16:40:54.548Z,25.63
2022-09-04T16:46:29.820Z,25.26
2022-09-04T16:51:48.557Z,25.03
2022-09-04T16:57:12.084Z,24.88
2022-09-04T17:02:10.324Z,24.79
2022-09-04T17:07:21.871Z,24.67
2022-09-04T17:12:39.151Z,24.46
2022-09-04T17:17:47.350Z,24.24
2022-09-04T17:28:56.217Z,24.00
2022-09-04T17:29:11.656Z,23.75
2022-09-04T17:40:33.343Z,23.42
2022-09-04T17:40:48.979Z,23.11
2022-09-04T17:44:42.988Z,22.85
2022-09-04T17:49:53.965Z,22.56
2022-09-04T17:55:08.297Z,22.27
2022-09-04T18:00:24.670Z,22.04
2022-09-04T18:05:43.500Z,21.86
2022-09-04T18:11:01.709Z,21.62
2022-09-04T18:16:13.078Z,21.44
2022-09-04T18:21:26.298Z,21.24
2022-09-04T18:26:44.000Z,21.05
2022-09-04T18:37:05.893Z,20.90
2022-09-04T18:37:45.192Z,20.76
2022-09-04T18:50:23.191Z,20.64
2022-09-04T18:50:48.819Z,20.50
2022-09-04T18:53:08.547Z,20.38
2022-09-04T18:58:17.190Z,20.27
2022-09-04T19:03:46.995Z,20.15
2022-09-04T19:08:54.037Z,20.05
2022-09-04T19:14:10.300Z,19.94
2022-09-04T19:19:34.380Z,19.89
2022-09-04T19:24:47.518Z,19.68
2022-09-04T19:30:18.354Z,19.60
2022-09-04T19:35:15.639Z,19.53
2022-09-04T19:46:07.118Z,19.39
2022-09-04T19:46:11.957Z,19.34
2022-09-04T19:53:23.060Z,19.34
2022-09-04T19:56:13.292Z,19.31
2022-09-04T20:01:27.687Z,19.23
2022-09-04T20:06:38.964Z,19.11
2022-09-04T20:11:51.081Z,19.02
2022-09-04T20:17:09.526Z,18.98
2022-09-04T20:22:39.896Z,18.88
2022-09-04T20:27:51.291Z,18.80
2022-09-04T20:33:05.599Z,18.73
2022-09-04T20:38:26.387Z,18.66
2022-09-04T20:43:59.290Z,18.62
2022-09-04T20:52:58.850Z,18.51
2022-09-04T20:54:28.500Z,18.42
2022-09-04T21:03:07.791Z,18.34
2022-09-04T21:05:23.141Z,18.29
2022-09-04T21:10:34.591Z,18.21
2022-09-04T21:15:49.283Z,18.09
2022-09-04T21:21:13.075Z,17.97
2022-09-04T21:26:47.713Z,17.98
2022-09-04T21:32:12.739Z,17.89
2022-09-04T21:37:40.827Z,17.83
2022-09-04T21:42:52.262Z,17.74
2022-09-04T21:48:06.905Z,17.74
2022-09-04T21:53:26.024Z,17.68
2022-09-04T22:02:30.532Z,17.63
2022-09-04T22:04:12.011Z,17.57
2022-09-04T22:13:32.585Z,17.49
2022-09-04T22:14:56.565Z,17.44
2022-09-04T22:20:23.006Z,17.37
2022-09-04T22:25:49.770Z,17.40
2022-09-04T22:31:22.650Z,17.39
2022-09-04T22:36:34.079Z,17.37
2022-09-04T22:41:54.689Z,17.32
2022-09-04T22:47:05.034Z,17.34
2022-09-04T22:52:22.502Z,17.26
2022-09-04T22:57:45.008Z,17.23
2022-09-04T23:03:13.705Z,17.21
2022-09-04T23:13:53.063Z,17.21
2022-09-04T23:14:06.794Z,17.12
2022-09-04T23:26:36.127Z,17.11
2022-09-04T23:26:44.301Z,17.08
2022-09-04T23:30:25.802Z,17.06
2022-09-04T23:35:42.366Z,17.02
2022-09-04T23:40:59.808Z,16.98
2022-09-04T23:46:29.082Z,16.88
2022-09-04T23:52:05.418Z,16.85
2022-09-04T23:57:26.449Z,16.86
